createdAt,value
2022-08-20T00:01:12.485Z,0.70
2022-08-20T00:03:41.485Z,0.90
2022-08-20T00:06:18.462Z,0.80
2022-08-20T00:08:46.662Z,0.88
2022-08-20T00:11:17.588Z,0.90
2022-08-20T00:13:52.841Z,0.68
2022-08-20T00:16:23.026Z,0.80
2022-08-20T00:18:50.291Z,0.88
2022-08-20T00:21:19.615Z,0.80
2022-08-20T00:23:49.893Z,0.85
2022-08-20T00:26:18.521Z,0.80
2022-08-20T00:28:45.771Z,1.05
2022-08-20T00:31:15.365Z,1.17
2022-08-20T00:33:42.409Z,1.00
2022-08-20T00:36:10.989Z,0.73
2022-08-20T00:38:41.334Z,0.80
2022-08-20T00:41:13.819Z,0.82
2022-08-20T00:44:03.975Z,1.08
2022-08-20T00:46:32.110Z,1.05
2022-08-20T00:49:01.712Z,1.02
2022-08-20T00:51:35.581Z,0.70
2022-08-20T00:54:16.161Z,0.63
2022-08-20T00:56:49.547Z,0.70
2022-08-20T00:59:23.912Z,0.90
2022-08-20T01:01:55.091Z,1.25
2022-08-20T01:04:29.552Z,1.10
2022-08-20T01:06:57.341Z,1.45
2022-08-20T01:09:50.201Z,1.20
2022-08-20T01:12:14.345Z,0.80
2022-08-20T01:14:47.037Z,0.77
2022-08-20T01:17:20.573Z,1.25
2022-08-20T01:19:54.667Z,1.40
2022-08-20T01:22:51.272Z,0.90
2022-08-20T01:25:33.169Z,1.00
2022-08-20T01:28:00.635Z,1.08
2022-08-20T01:30:29.700Z,1.00
2022-08-20T01:32:56.913Z,1.30
2022-08-20T01:35:24.859Z,1.05
2022-08-20T01:37:52.514Z,1.58
2022-08-20T01:40:36.590Z,1.20
2022-08-20T01:43:09.090Z,1.17
2022-08-20T01:45:40.160Z,1.17
2022-08-20T01:48:08.444Z,1.05
2022-08-20T01:50:41.731Z,1.30
2022-08-20T01:53:21.391Z,1.30
2022-08-20T01:55:48.380Z,1.08
2022-08-20T01:58:15.716Z,1.67
2022-08-20T02:00:43.402Z,1.60
2022-08-20T02:03:10.372Z,1.47
2022-08-20T02:05:37.505Z,1.13
2022-08-20T02:08:05.353Z,1.23
2022-08-20T02:10:32.778Z,1.10
2022-08-20T02:13:01.331Z,1.05
2022-08-20T02:18:08.418Z,0.65
2022-08-20T02:20:36.467Z,0.90
2022-08-20T02:23:04.765Z,1.10
2022-08-20T02:25:33.946Z,1.20
2022-08-20T02:28:07.718Z,1.00
2022-08-20T02:30:39.694Z,1.13
2022-08-20T02:33:09.511Z,1.20
2022-08-20T02:35:39.346Z,1.30
2022-08-20T02:38:06.594Z,1.38
2022-08-20T02:40:34.225Z,1.50
2022-08-20T02:43:02.443Z,1.10
2022-08-20T02:45:36.126Z,1.30
2022-08-20T02:48:04.444Z,1.00
2022-08-20T02:50:31.940Z,1.13
2022-08-20T02:52:59.006Z,1.30
2022-08-20T02:55:28.027Z,1.30
2022-08-20T02:58:00.379Z,1.23
2022-08-20T03:00:36.679Z,1.35
2022-08-20T03:03:08.138Z,1.20
2022-08-20T03:05:36.341Z,1.40
2022-08-20T03:08:08.437Z,1.02
2022-08-20T03:10:37.314Z,1.05
2022-08-20T03:13:05.165Z,1.10
2022-08-20T03:15:34.467Z,1.00
2022-08-20T03:18:01.616Z,0.95
2022-08-20T03:20:30.291Z,1.02
2022-08-20T03:22:58.420Z,1.10
2022-08-20T03:25:26.198Z,1.13
2022-08-20T03:30:23.992Z,1.67
2022-08-20T03:32:51.278Z,1.15
2022-08-20T03:35:21.036Z,1.20
2022-08-20T03:37:48.860Z,1.48
2022-08-20T03:40:22.191Z,1.48
2022-08-20T03:42:49.342Z,1.45
2022-08-20T03:45:20.354Z,1.42
2022-08-20T03:47:52.554Z,1.23
2022-08-20T03:50:24.348Z,1.02
2022-08-20T03:52:52.896Z,1.00
2022-08-20T03:57:50.600Z,1.15
2022-08-20T04:00:25.730Z,0.95
2022-08-20T04:02:52.961Z,0.80
2022-08-20T04:05:21.014Z,1.02
2022-08-20T04:07:48.085Z,1.17
2022-08-20T04:10:15.065Z,1.00
2022-08-20T04:12:52.682Z,1.40
2022-08-20T04:15:21.225Z,1.40
2022-08-20T04:17:54.240Z,1.13
2022-08-20T04:20:23.977Z,1.10
2022-08-20T04:22:58.649Z,1.50
2022-08-20T04:25:35.895Z,1.23
2022-08-20T04:28:07.140Z,0.95
2022-08-20T04:30:34.451Z,1.13
2022-08-20T04:33:01.693Z,1.27
2022-08-20T04:35:30.125Z,1.38
2022-08-20T04:38:06.881Z,1.05
2022-08-20T04:40:54.055Z,1.17
2022-08-20T04:43:25.272Z,1.50
2022-08-20T04:45:54.261Z,1.23
2022-08-20T04:48:23.949Z,1.15
2022-08-20T04:50:52.573Z,1.13
2022-08-20T04:53:25.967Z,1.27
2022-08-20T04:55:55.605Z,1.00
2022-08-20T04:58:27.306Z,1.00
2022-08-20T05:01:01.253Z,1.20
2022-08-20T05:03:29.634Z,1.15
2022-08-20T05:05:57.181Z,0.82
2022-08-20T05:08:26.048Z,0.80
2022-08-20T05:10:56.123Z,0.77
2022-08-20T05:13:42.855Z,1.10
2022-08-20T05:16:10.202Z,0.80
2022-08-20T05:18:37.217Z,1.05
2022-08-20T05:21:07.330Z,1.30
2022-08-20T05:23:36.986Z,1.20
2022-08-20T05:26:09.201Z,0.85
2022-08-20T05:28:57.715Z,1.08
2022-08-20T05:31:31.237Z,1.10
2022-08-20T05:34:04.295Z,1.05
2022-08-20T05:36:31.336Z,1.20
2022-08-20T05:38:58.330Z,1.15
2022-08-20T05:41:29.593Z,0.95
2022-08-20T05:44:01.353Z,1.27
2022-08-20T05:46:31.350Z,1.42
2022-08-20T05:48:59.792Z,1.15
2022-08-20T05:51:28.257Z,1.30
2022-08-20T05:53:57.987Z,1.38
2022-08-20T05:56:30.579Z,1.42
2022-08-20T05:59:00.890Z,1.42
2022-08-20T06:01:28.189Z,1.58
2022-08-20T06:04:13.697Z,1.20
2022-08-20T06:06:45.666Z,1.23
2022-08-20T06:09:16.457Z,1.33
2022-08-20T06:11:55.054Z,1.23
2022-08-20T06:14:26.654Z,1.63
2022-08-20T06:16:57.578Z,1.25
2022-08-20T06:19:27.226Z,1.65
2022-08-20T06:21:59.984Z,1.40
2022-08-20T06:24:27.045Z,1.27
2022-08-20T06:26:59.117Z,1.35
2022-08-20T06:29:27.641Z,1.00
2022-08-20T06:34:21.992Z,1.10
2022-08-20T06:36:48.934Z,1.40
2022-08-20T06:39:16.380Z,2.00
2022-08-20T06:41:43.397Z,2.17
2022-08-20T06:44:10.588Z,2.08
2022-08-20T06:46:38.657Z,2.08
2022-08-20T06:49:07.036Z,1.58
2022-08-20T06:51:34.947Z,1.05
2022-08-20T06:54:01.954Z,1.40
2022-08-20T06:56:29.068Z,1.30
2022-08-20T06:58:56.011Z,1.40
2022-08-20T07:01:23.098Z,1.67
2022-08-20T07:03:55.471Z,2.47
2022-08-20T07:06:25.886Z,1.40
2022-08-20T07:08:55.308Z,1.55
2022-08-20T07:11:27.764Z,1.60
2022-08-20T07:13:58.511Z,1.40
2022-08-20T07:16:26.151Z,1.52
2022-08-20T07:18:53.121Z,1.65
2022-08-20T07:21:20.396Z,1.02
2022-08-20T07:23:48.958Z,1.20
2022-08-20T07:26:16.370Z,1.83
2022-08-20T07:28:43.578Z,1.10
2022-08-20T07:31:28.979Z,0.95
2022-08-20T07:33:58.841Z,1.20
2022-08-20T07:36:28.130Z,1.60
2022-08-20T07:38:56.963Z,1.30
2022-08-20T07:41:24.555Z,1.60
2022-08-20T07:43:51.830Z,1.48
2022-08-20T07:46:21.661Z,1.45
2022-08-20T07:48:50.479Z,1.40
2022-08-20T07:51:22.562Z,1.85
2022-08-20T07:53:51.833Z,1.35
2022-08-20T07:56:22.839Z,1.55
2022-08-20T07:58:55.482Z,1.60
2022-08-20T08:01:28.691Z,1.40
2022-08-20T08:03:57.708Z,1.65
2022-08-20T08:06:30.536Z,1.60
2022-08-20T08:09:03.778Z,1.77
2022-08-20T08:11:34.928Z,2.08
2022-08-20T08:14:06.641Z,2.10
2022-08-20T08:16:35.270Z,1.98
2022-08-20T08:19:06.759Z,2.00
2022-08-20T08:21:34.250Z,2.50
2022-08-20T08:24:01.541Z,2.00
2022-08-20T08:26:29.197Z,1.98
2022-08-20T08:28:58.130Z,1.97
2022-08-20T08:31:25.873Z,2.00
2022-08-20T08:33:53.294Z,1.40
2022-08-20T08:36:20.328Z,1.65
2022-08-20T08:38:47.565Z,1.30
2022-08-20T08:41:25.117Z,1.83
2022-08-20T08:43:54.714Z,2.10
2022-08-20T08:46:27.382Z,1.63
2022-08-20T08:48:58.076Z,1.40
2022-08-20T08:51:41.066Z,1.58
2022-08-20T08:54:12.845Z,1.30
2022-08-20T08:56:40.169Z,1.42
2022-08-20T08:59:09.017Z,1.50
2022-08-20T09:01:55.020Z,1.60
2022-08-20T09:04:37.413Z,1.10
2022-08-20T09:07:11.000Z,1.45
2022-08-20T09:09:41.170Z,1.65
2022-08-20T09:12:14.953Z,1.38
2022-08-20T09:14:41.986Z,1.55
2022-08-20T09:17:08.981Z,1.60
2022-08-20T09:19:36.190Z,1.50
2022-08-20T09:22:11.097Z,1.30
2022-08-20T09:24:39.751Z,1.40
2022-08-20T09:27:07.418Z,1.70
2022-08-20T09:29:34.619Z,1.67
2022-08-20T09:32:26.073Z,1.65
2022-08-20T09:34:59.234Z,1.52
2022-08-20T09:37:36.731Z,1.83
2022-08-20T09:40:05.145Z,1.70
2022-08-20T09:42:38.873Z,1.65
2022-08-20T09:45:11.031Z,1.77
2022-08-20T09:47:41.680Z,1.65
2022-08-20T09:50:22.366Z,1.30
2022-08-20T09:52:53.910Z,1.40
2022-08-20T09:55:32.410Z,1.80
2022-08-20T09:58:01.433Z,1.63
2022-08-20T10:00:28.439Z,1.83
2022-08-20T10:02:55.614Z,1.00
2022-08-20T10:05:22.648Z,1.50
2022-08-20T10:07:49.814Z,1.50
2022-08-20T10:10:16.958Z,1.63
2022-08-20T10:12:44.211Z,1.70
2022-08-20T10:15:11.722Z,1.73
2022-08-20T10:17:43.155Z,1.45
2022-08-20T10:20:12.885Z,1.60
2022-08-20T10:22:40.097Z,1.60
2022-08-20T10:25:08.070Z,1.40
2022-08-20T10:27:35.178Z,1.70
2022-08-20T10:30:06.476Z,1.90
2022-08-20T10:32:33.740Z,1.55
2022-08-20T10:35:01.008Z,1.70
2022-08-20T10:37:28.043Z,1.40
2022-08-20T10:39:56.612Z,1.75
2022-08-20T10:42:23.825Z,1.30
2022-08-20T10:44:51.071Z,1.88
2022-08-20T10:47:30.010Z,1.90
2022-08-20T10:50:01.428Z,1.52
2022-08-20T10:52:28.889Z,1.52
2022-08-20T10:54:56.456Z,1.85
2022-08-20T10:57:28.900Z,1.80
2022-08-20T10:59:57.539Z,1.50
2022-08-20T11:02:25.890Z,2.00
2022-08-20T11:04:53.358Z,1.60
2022-08-20T11:07:49.471Z,1.60
2022-08-20T11:10:16.315Z,1.70
2022-08-20T11:12:46.373Z,1.65
2022-08-20T11:15:14.994Z,1.40
2022-08-20T11:17:43.692Z,1.60
2022-08-20T11:20:13.402Z,1.80
2022-08-20T11:22:40.513Z,1.90
2022-08-20T11:25:08.335Z,1.42
2022-08-20T11:27:41.754Z,1.70
2022-08-20T11:30:12.447Z,1.60
2022-08-20T11:32:39.516Z,1.63
2022-08-20T11:35:38.509Z,1.58
2022-08-20T11:40:23.885Z,1.77
2022-08-20T11:43:13.026Z,1.83
2022-08-20T11:45:38.464Z,1.52
2022-08-20T11:48:05.705Z,1.40
2022-08-20T11:50:32.889Z,1.80
2022-08-20T11:53:00.895Z,1.80
2022-08-20T11:55:30.155Z,1.75
2022-08-20T11:58:00.133Z,1.48
2022-08-20T12:00:32.702Z,1.33
2022-08-20T12:03:01.455Z,1.63
2022-08-20T12:08:00.259Z,1.80
2022-08-20T12:10:28.239Z,1.63
2022-08-20T12:15:25.331Z,1.50
2022-08-20T12:17:52.644Z,1.50
2022-08-20T12:20:20.067Z,1.67
2022-08-20T12:22:47.211Z,1.35
2022-08-20T12:25:14.743Z,1.97
2022-08-20T12:27:42.339Z,2.20
2022-08-20T12:30:12.986Z,1.95
2022-08-20T12:32:40.415Z,1.67
2022-08-20T12:35:09.665Z,1.90
2022-08-20T12:37:37.143Z,1.42
2022-08-20T12:40:07.537Z,1.40
2022-08-20T12:42:34.854Z,1.50
2022-08-20T12:45:02.158Z,1.50
2022-08-20T12:47:38.757Z,1.38
2022-08-20T12:50:07.810Z,1.63
2022-08-20T12:52:35.567Z,1.60
2022-08-20T12:55:03.650Z,1.90
2022-08-20T12:57:34.214Z,1.67
2022-08-20T13:00:10.565Z,2.05
2022-08-20T13:02:41.389Z,1.30
2022-08-20T13:05:10.350Z,1.52
2022-08-20T13:07:41.470Z,1.77
2022-08-20T13:10:10.701Z,1.50
2022-08-20T13:12:37.902Z,1.77
2022-08-20T13:15:05.728Z,2.07
2022-08-20T13:17:38.746Z,1.55
2022-08-20T13:20:16.453Z,1.85
2022-08-20T13:22:44.000Z,1.85
2022-08-20T13:25:13.016Z,1.75
2022-08-20T13:27:43.845Z,1.30
2022-08-20T13:30:14.025Z,1.70
2022-08-20T13:32:41.825Z,1.90
2022-08-20T13:35:09.702Z,1.55
2022-08-20T13:37:36.746Z,1.60
2022-08-20T13:40:05.149Z,1.30
2022-08-20T13:42:32.302Z,1.42
2022-08-20T13:44:59.267Z,1.48
2022-08-20T13:47:30.986Z,1.85
2022-08-20T13:50:04.825Z,1.60
2022-08-20T13:52:33.369Z,1.50
2022-08-20T13:55:03.141Z,1.38
2022-08-20T13:57:34.833Z,1.70
2022-08-20T14:00:02.187Z,1.50
2022-08-20T14:02:31.245Z,1.40
2022-08-20T14:04:58.191Z,1.70
2022-08-20T14:07:32.475Z,1.50
2022-08-20T14:10:03.676Z,1.30
2022-08-20T14:12:31.007Z,1.48
2022-08-20T14:14:58.866Z,1.58
2022-08-20T14:17:28.772Z,1.40
2022-08-20T14:20:02.229Z,1.52
2022-08-20T14:22:30.063Z,1.38
2022-08-20T14:24:57.272Z,1.45
2022-08-20T14:27:29.114Z,1.42
2022-08-20T14:29:58.883Z,1.80
2022-08-20T14:32:26.605Z,1.40
2022-08-20T14:34:54.601Z,1.20
2022-08-20T14:37:33.498Z,1.60
2022-08-20T14:40:02.956Z,1.50
2022-08-20T14:42:30.521Z,1.40
2022-08-20T14:44:59.052Z,1.70
2022-08-20T14:47:53.533Z,1.13
2022-08-20T14:50:31.838Z,1.70
2022-08-20T14:52:59.843Z,1.30
2022-08-20T14:55:32.376Z,1.67
2022-08-20T14:57:59.502Z,1.50
2022-08-20T15:00:29.469Z,1.40
2022-08-20T15:02:57.008Z,1.65
2022-08-20T15:05:24.167Z,1.52
2022-08-20T15:07:53.923Z,1.45
2022-08-20T15:10:33.903Z,1.70
2022-08-20T15:13:01.042Z,1.60
2022-08-20T15:15:28.503Z,1.63
2022-08-20T15:17:57.906Z,1.67
2022-08-20T15:20:28.833Z,1.33
2022-08-20T15:22:55.928Z,1.63
2022-08-20T15:25:25.359Z,1.70
2022-08-20T15:27:56.154Z,1.73
2022-08-20T15:30:29.180Z,1.42
2022-08-20T15:32:56.249Z,1.58
2022-08-20T15:35:26.920Z,1.35
2022-08-20T15:37:56.836Z,1.13
2022-08-20T15:40:28.536Z,1.58
2022-08-20T15:43:00.397Z,1.65
2022-08-20T15:45:27.672Z,1.40
2022-08-20T15:48:14.492Z,1.50
2022-08-20T15:51:11.268Z,1.60
2022-08-20T15:53:50.601Z,1.35
2022-08-20T15:56:29.437Z,1.08
2022-08-20T15:59:20.485Z,1.23
2022-08-20T16:02:09.036Z,1.23
2022-08-20T16:04:57.052Z,1.20
2022-08-20T16:10:34.174Z,1.30
2022-08-20T16:13:05.728Z,1.30
2022-08-20T16:15:37.026Z,1.20
2022-08-20T16:18:17.034Z,1.15
2022-08-20T16:20:51.451Z,1.40
2022-08-20T16:23:23.592Z,1.30
2022-08-20T16:26:01.782Z,1.00
2022-08-20T16:31:13.783Z,1.35
2022-08-20T16:34:33.303Z,1.30
2022-08-20T16:37:32.317Z,1.60
2022-08-20T16:40:15.641Z,1.27
2022-08-20T16:42:47.761Z,1.30
2022-08-20T16:45:26.006Z,1.50
2022-08-20T16:47:56.969Z,1.77
2022-08-20T16:51:06.230Z,1.40
2022-08-20T16:53:33.619Z,2.17
2022-08-20T16:56:00.612Z,2.00
2022-08-20T16:58:27.775Z,1.85
2022-08-20T17:01:06.891Z,1.60
2022-08-20T17:03:40.468Z,1.67
2022-08-20T17:06:30.660Z,1.60
2022-08-20T17:08:57.865Z,1.73
2022-08-20T17:11:32.611Z,1.45
2022-08-20T17:14:10.916Z,1.45
2022-08-20T17:16:48.416Z,1.63
2022-08-20T17:19:30.534Z,1.63
2022-08-20T17:22:14.425Z,1.42
2022-08-20T17:24:41.724Z,1.30
2022-08-20T17:27:15.528Z,1.70
2022-08-20T17:29:55.859Z,1.70
2022-08-20T17:32:26.466Z,1.83
2022-08-20T17:34:57.111Z,1.60
2022-08-20T17:37:27.838Z,1.55
2022-08-20T17:40:25.395Z,1.70
2022-08-20T17:42:59.400Z,1.65
2022-08-20T17:45:31.090Z,1.35
2022-08-20T17:48:00.021Z,1.50
2022-08-20T17:50:34.965Z,1.33
2022-08-20T17:53:14.295Z,1.42
2022-08-20T17:55:42.401Z,1.77
2022-08-20T17:58:14.031Z,1.20
2022-08-20T18:00:46.040Z,1.52
2022-08-20T18:03:26.407Z,1.50
2022-08-20T18:06:02.270Z,1.27
2022-08-20T18:08:44.304Z,1.38
2022-08-20T18:11:14.320Z,1.52
2022-08-20T18:14:12.045Z,1.63
2022-08-20T18:17:12.652Z,1.50
2022-08-20T18:19:51.864Z,1.25
2022-08-20T18:22:26.645Z,1.30
2022-08-20T18:25:18.230Z,1.45
2022-08-20T18:27:49.517Z,1.45
2022-08-20T18:30:21.789Z,1.67
2022-08-20T18:32:51.380Z,1.55
2022-08-20T18:35:46.356Z,1.50
2022-08-20T18:38:22.582Z,1.88
2022-08-20T18:40:53.229Z,1.58
2022-08-20T18:43:31.451Z,1.60
2022-08-20T18:46:20.986Z,1.60
2022-08-20T18:48:58.325Z,1.40
2022-08-20T18:51:54.268Z,1.73
2022-08-20T18:54:31.886Z,1.85
2022-08-20T18:57:07.962Z,1.80
2022-08-20T18:59:44.533Z,1.60
2022-08-20T19:02:41.628Z,1.63
2022-08-20T19:05:12.138Z,1.57
2022-08-20T19:07:48.802Z,1.45
2022-08-20T19:10:28.380Z,1.75
2022-08-20T19:13:04.413Z,1.90
2022-08-20T19:15:33.540Z,1.50
2022-08-20T19:18:10.517Z,1.23
2022-08-20T19:20:49.868Z,2.00
2022-08-20T19:23:21.061Z,1.27
2022-08-20T19:26:04.043Z,1.13
2022-08-20T19:28:36.070Z,1.10
2022-08-20T19:31:28.248Z,1.05
2022-08-20T19:34:20.070Z,1.00
2022-08-20T19:37:09.130Z,1.50
2022-08-20T19:39:50.888Z,1.40
2022-08-20T19:42:25.367Z,1.50
2022-08-20T19:44:55.180Z,1.23
2022-08-20T19:47:37.714Z,1.35
2022-08-20T19:50:26.620Z,1.30
2022-08-20T19:53:18.452Z,1.20
2022-08-20T19:56:05.425Z,1.30
2022-08-20T19:58:34.438Z,1.35
2022-08-20T20:01:03.978Z,1.10
2022-08-20T20:03:35.381Z,1.20
2022-08-20T20:06:17.039Z,1.25
2022-08-20T20:09:13.925Z,1.23
2022-08-20T20:11:45.305Z,1.40
2022-08-20T20:14:15.105Z,1.20
2022-08-20T20:16:42.785Z,1.10
2022-08-20T20:19:28.558Z,1.10
2022-08-20T20:22:52.267Z,1.00
2022-08-20T20:25:34.344Z,1.15
2022-08-20T20:28:19.285Z,1.30
2022-08-20T20:30:47.825Z,1.05
2022-08-20T20:33:26.750Z,1.65
2022-08-20T20:36:12.513Z,1.40
2022-08-20T20:38:55.505Z,1.50
2022-08-20T20:41:28.546Z,1.40
2022-08-20T20:44:07.421Z,1.20
2022-08-20T20:49:22.371Z,1.58
2022-08-20T20:52:06.285Z,1.38
2022-08-20T20:54:46.949Z,1.38
2022-08-20T20:57:32.709Z,1.33
2022-08-20T21:00:19.099Z,1.27
2022-08-20T21:02:46.841Z,1.20
2022-08-20T21:05:16.370Z,1.00
2022-08-20T21:07:51.564Z,1.20
2022-08-20T21:10:22.236Z,1.05
2022-08-20T21:12:56.751Z,1.48
2022-08-20T21:15:27.513Z,1.40
2022-08-20T21:17:54.840Z,1.20
2022-08-20T21:20:22.556Z,1.30
2022-08-20T21:22:52.540Z,1.13
2022-08-20T21:25:20.433Z,1.25
2022-08-20T21:27:51.889Z,1.13
2022-08-20T21:30:24.973Z,0.95
2022-08-20T21:32:52.320Z,1.00
2022-08-20T21:35:19.983Z,1.15
2022-08-20T21:37:47.282Z,0.90
2022-08-20T21:40:21.451Z,1.30
2022-08-20T21:42:50.189Z,1.30
2022-08-20T21:45:19.494Z,1.27
2022-08-20T21:47:49.131Z,1.00
2022-08-20T21:50:21.947Z,1.30
2022-08-20T21:52:59.175Z,1.00
2022-08-20T21:55:28.229Z,1.30
2022-08-20T21:57:55.274Z,1.42
2022-08-20T22:00:47.126Z,1.10
2022-08-20T22:03:15.874Z,1.02
2022-08-20T22:05:43.533Z,1.33
2022-08-20T22:08:11.626Z,1.30
2022-08-20T22:10:38.913Z,1.23
2022-08-20T22:13:06.301Z,1.40
2022-08-20T22:15:33.952Z,1.00
2022-08-20T22:18:01.017Z,1.27
2022-08-20T22:20:28.889Z,1.13
2022-08-20T22:22:56.017Z,1.10
2022-08-20T22:25:23.413Z,0.88
2022-08-20T22:27:50.436Z,1.13
2022-08-20T22:30:17.450Z,1.20
2022-08-20T22:32:51.757Z,1.33
2022-08-20T22:35:29.417Z,1.00
2022-08-20T22:37:56.699Z,1.35
2022-08-20T22:40:24.180Z,1.17
2022-08-20T22:42:51.496Z,1.02
2022-08-20T22:45:19.003Z,1.38
2022-08-20T22:47:46.320Z,1.38
2022-08-20T22:50:14.494Z,1.05
2022-08-20T22:52:43.406Z,1.20
2022-08-20T22:55:11.329Z,1.60
2022-08-20T22:57:39.078Z,1.10
2022-08-20T23:00:11.559Z,1.23
2022-08-20T23:02:40.358Z,1.45
2022-08-20T23:05:11.903Z,1.30
2022-08-20T23:07:39.365Z,1.17
2022-08-20T23:10:06.881Z,1.15
2022-08-20T23:12:33.855Z,1.20
2022-08-20T23:15:00.827Z,0.80
2022-08-20T23:17:27.906Z,1.00
2022-08-20T23:19:55.490Z,1.20
2022-08-20T23:22:22.566Z,0.90
2022-08-20T23:24:49.727Z,1.00
2022-08-20T23:27:19.648Z,0.82
2022-08-20T23:29:47.442Z,1.00
2022-08-20T23:32:14.444Z,1.10
2022-08-20T23:34:41.458Z,1.05
2022-08-20T23:37:09.704Z,0.80
2022-08-20T23:39:37.359Z,1.08
2022-08-20T23:42:04.698Z,1.00
2022-08-20T23:44:31.643Z,1.17
2022-08-20T23:47:02.168Z,0.95
2022-08-20T23:49:30.554Z,0.88
2022-08-20T23:52:00.368Z,1.20
2022-08-20T23:54:29.461Z,1.10
2022-08-20T23:56:56.972Z,1.05
2022-08-20T23:59:24.444Z,0.93
